createdAt,value
2018-06-24T00:00:33.513Z,0
2018-06-24T00:01:42.161Z,0
2018-06-24T00:02:50.804Z,0
2018-06-24T00:03:59.460Z,0
2018-06-24T00:05:08.360Z,0
2018-06-24T00:06:17.009Z,0
2018-06-24T00:07:26.178Z,0
2018-06-24T00:08:34.832Z,0
2018-06-24T00:09:43.466Z,0
2018-06-24T00:10:52.110Z,0
2018-06-24T00:12:00.756Z,0
2018-06-24T00:13:09.408Z,0
2018-06-24T00:14:18.092Z,0
2018-06-24T00:15:26.703Z,0
2018-06-24T00:16:35.336Z,0
2018-06-24T00:17:43.980Z,0
2018-06-24T00:18:52.613Z,0
2018-06-24T00:20:01.264Z,0
2018-06-24T00:21:09.902Z,0
2018-06-24T00:22:18.556Z,0
2018-06-24T00:23:27.467Z,0
2018-06-24T00:24:36.114Z,0
2018-06-24T00:25:44.759Z,0
2018-06-24T00:26:53.670Z,0
2018-06-24T00:28:02.307Z,0
2018-06-24T00:29:10.952Z,0
2018-06-24T00:30:19.595Z,0
2018-06-24T00:31:28.514Z,0
2018-06-24T00:32:37.686Z,0
2018-06-24T00:33:46.591Z,0
2018-06-24T00:34:55.494Z,0
2018-06-24T00:36:04.401Z,0
2018-06-24T00:37:13.162Z,0
2018-06-24T00:38:21.699Z,0
2018-06-24T00:39:30.348Z,0
2018-06-24T00:40:38.981Z,0
2018-06-24T00:41:47.631Z,0
2018-06-24T00:42:56.271Z,0
2018-06-24T00:44:04.918Z,0
2018-06-24T00:45:13.552Z,0
2018-06-24T00:46:22.205Z,0
2018-06-24T00:47:30.849Z,0
2018-06-24T00:48:39.497Z,0
2018-06-24T00:49:48.134Z,0
2018-06-24T00:50:56.780Z,0
2018-06-24T00:52:05.428Z,0
2018-06-24T00:53:14.072Z,0
2018-06-24T00:54:22.719Z,0
2018-06-24T00:55:31.354Z,0
2018-06-24T00:56:40.264Z,0
2018-06-24T00:57:48.904Z,0
2018-06-24T00:58:57.820Z,0
2018-06-24T01:00:06.755Z,0
2018-06-24T01:01:15.403Z,0
2018-06-24T01:02:24.043Z,0
2018-06-24T01:03:32.693Z,0
2018-06-24T01:04:41.328Z,0
2018-06-24T01:05:49.977Z,0
2018-06-24T01:06:58.619Z,0
2018-06-24T01:08:07.539Z,0
2018-06-24T01:09:16.449Z,0
2018-06-24T01:10:25.092Z,0
2018-06-24T01:11:33.729Z,0
2018-06-24T01:12:42.371Z,0
2018-06-24T01:13:51.025Z,0
2018-06-24T01:14:59.667Z,0
2018-06-24T01:16:08.316Z,0
2018-06-24T01:17:17.217Z,0
2018-06-24T01:18:25.866Z,0
2018-06-24T01:19:34.510Z,0
2018-06-24T01:20:43.151Z,0
2018-06-24T01:21:51.789Z,0
2018-06-24T01:23:00.443Z,0
2018-06-24T01:24:09.078Z,0
2018-06-24T01:25:17.723Z,0
2018-06-24T01:26:26.371Z,0
2018-06-24T01:27:35.013Z,0
2018-06-24T01:28:43.926Z,0
2018-06-24T01:29:52.575Z,0
2018-06-24T01:31:01.217Z,0
2018-06-24T01:32:09.857Z,0
2018-06-24T01:33:18.503Z,0
2018-06-24T01:34:27.143Z,0
2018-06-24T01:35:35.790Z,0
2018-06-24T01:36:44.430Z,0
2018-06-24T01:37:53.073Z,0
2018-06-24T01:39:01.716Z,0
2018-06-24T01:40:10.364Z,0
2018-06-24T01:41:19.000Z,0
2018-06-24T01:42:28.175Z,0
2018-06-24T01:43:36.819Z,0
2018-06-24T01:44:45.469Z,0
2018-06-24T01:45:54.114Z,0
2018-06-24T01:47:02.758Z,0
2018-06-24T01:48:11.397Z,0
2018-06-24T01:49:20.039Z,0
2018-06-24T01:50:28.686Z,0
2018-06-24T01:51:37.329Z,0
2018-06-24T01:52:45.972Z,0
2018-06-24T01:53:54.873Z,0
2018-06-24T01:55:03.788Z,0
2018-06-24T01:56:12.430Z,0
2018-06-24T01:57:21.341Z,0
2018-06-24T01:58:29.980Z,0
2018-06-24T01:59:38.893Z,0
2018-06-24T02:00:47.532Z,0
2018-06-24T02:01:56.179Z,0
2018-06-24T02:03:04.816Z,0
2018-06-24T02:04:13.461Z,0
2018-06-24T02:05:22.103Z,0
2018-06-24T02:06:30.749Z,0
2018-06-24T02:07:39.394Z,0
2018-06-24T02:08:48.032Z,0
2018-06-24T02:09:56.674Z,0
2018-06-24T02:11:05.317Z,0
2018-06-24T02:12:14.231Z,0
2018-06-24T02:13:22.868Z,0
2018-06-24T02:14:31.512Z,0
2018-06-24T02:15:40.421Z,0
2018-06-24T02:16:49.333Z,0
2018-06-24T02:17:57.974Z,0
2018-06-24T02:19:06.618Z,0
2018-06-24T02:20:15.256Z,0
2018-06-24T02:21:23.903Z,0
2018-06-24T02:22:32.543Z,0
2018-06-24T02:23:41.458Z,0
2018-06-24T02:24:50.645Z,0
2018-06-24T02:25:59.292Z,0
2018-06-24T02:27:07.938Z,0
2018-06-24T02:28:16.582Z,0
2018-06-24T02:29:25.493Z,0
2018-06-24T02:30:34.141Z,0
2018-06-24T02:31:42.793Z,0
2018-06-24T02:32:51.703Z,0
2018-06-24T02:34:00.623Z,0
2018-06-24T02:35:09.258Z,0
2018-06-24T02:36:17.905Z,0
2018-06-24T02:37:26.816Z,0
2018-06-24T02:38:35.467Z,0
2018-06-24T02:39:44.369Z,0
2018-06-24T02:40:53.020Z,0
2018-06-24T02:42:01.671Z,0
2018-06-24T02:43:10.328Z,0
2018-06-24T02:44:19.241Z,0
2018-06-24T02:45:28.148Z,0
2018-06-24T02:46:36.793Z,0
2018-06-24T02:47:45.441Z,0
2018-06-24T02:48:54.091Z,0
2018-06-24T02:50:03.270Z,0
2018-06-24T02:51:12.191Z,0
2018-06-24T02:52:21.107Z,0
2018-06-24T02:53:29.846Z,0
2018-06-24T02:54:38.668Z,0
2018-06-24T02:55:47.319Z,0
2018-06-24T02:56:56.221Z,0
2018-06-24T02:58:04.872Z,0
2018-06-24T02:59:13.511Z,0
2018-06-24T03:00:22.160Z,0
2018-06-24T03:01:31.064Z,0
2018-06-24T03:02:39.704Z,0
2018-06-24T03:03:48.357Z,0
2018-06-24T03:04:57.003Z,0
2018-06-24T03:06:06.187Z,0
2018-06-24T03:07:15.127Z,0
2018-06-24T03:08:24.327Z,0
2018-06-24T03:09:32.979Z,0
2018-06-24T03:10:41.632Z,0
2018-06-24T03:11:50.272Z,0
2018-06-24T03:12:59.201Z,0
2018-06-24T03:14:08.120Z,0
2018-06-24T03:15:16.769Z,0
2018-06-24T03:16:25.674Z,0
2018-06-24T03:17:34.326Z,0
2018-06-24T03:18:43.775Z,0
2018-06-24T03:19:52.420Z,0
2018-06-24T03:21:01.341Z,0
2018-06-24T03:22:10.234Z,0
2018-06-24T03:23:18.876Z,0
2018-06-24T03:24:27.517Z,0
2018-06-24T03:25:36.170Z,5
2018-06-24T03:26:44.806Z,5
2018-06-24T03:27:53.454Z,5
2018-06-24T03:29:02.096Z,10
2018-06-24T03:30:10.753Z,10
2018-06-24T03:31:19.395Z,10
2018-06-24T03:32:28.038Z,15
2018-06-24T03:33:36.952Z,15
2018-06-24T03:34:45.869Z,15
2018-06-24T03:35:54.781Z,15
2018-06-24T03:37:03.685Z,15
2018-06-24T03:38:12.334Z,15
2018-06-24T03:39:20.978Z,15
2018-06-24T03:40:29.893Z,15
2018-06-24T03:41:38.797Z,15
2018-06-24T03:42:47.707Z,15
2018-06-24T03:43:56.346Z,20
2018-06-24T03:45:04.997Z,20
2018-06-24T03:46:13.635Z,20
2018-06-24T03:47:22.808Z,20
2018-06-24T03:48:31.443Z,20
2018-06-24T03:49:40.094Z,20
2018-06-24T03:50:48.734Z,20
2018-06-24T03:51:57.380Z,20
2018-06-24T03:53:06.012Z,20
2018-06-24T03:54:14.659Z,20
2018-06-24T03:55:23.305Z,25
2018-06-24T03:56:31.951Z,25
2018-06-24T03:57:40.599Z,25
2018-06-24T03:58:49.238Z,25
2018-06-24T03:59:57.879Z,25
2018-06-24T04:01:06.802Z,25
2018-06-24T04:02:15.454Z,25
2018-06-24T04:03:24.089Z,25
2018-06-24T04:04:32.739Z,30
2018-06-24T04:05:41.377Z,30
2018-06-24T04:06:50.029Z,30
2018-06-24T04:07:58.661Z,30
2018-06-24T04:09:07.573Z,30
2018-06-24T04:10:16.219Z,30
2018-06-24T04:11:24.855Z,30
2018-06-24T04:12:33.500Z,30
2018-06-24T04:13:42.146Z,30
2018-06-24T04:14:50.794Z,30
2018-06-24T04:15:59.442Z,30
2018-06-24T04:17:08.077Z,30
2018-06-24T04:18:16.728Z,35
2018-06-24T04:19:25.367Z,35
2018-06-24T04:20:34.022Z,35
2018-06-24T04:21:42.656Z,35
2018-06-24T04:22:51.303Z,40
2018-06-24T04:23:59.948Z,40
2018-06-24T04:25:08.607Z,45
2018-06-24T04:26:17.509Z,45
2018-06-24T04:27:26.418Z,45
2018-06-24T04:28:35.059Z,45
2018-06-24T04:29:43.980Z,45
2018-06-24T04:30:52.618Z,50
2018-06-24T04:32:01.256Z,50
2018-06-24T04:33:09.898Z,55
2018-06-24T04:34:18.801Z,60
2018-06-24T04:35:27.454Z,65
2018-06-24T04:36:36.092Z,70
2018-06-24T04:37:45.009Z,80
2018-06-24T04:38:53.911Z,80
2018-06-24T04:40:02.564Z,75
2018-06-24T04:41:11.205Z,75
2018-06-24T04:42:19.858Z,75
2018-06-24T04:43:28.492Z,70
2018-06-24T04:44:37.145Z,70
2018-06-24T04:45:45.787Z,70
2018-06-24T04:46:54.433Z,65
2018-06-24T04:48:03.068Z,65
2018-06-24T04:49:11.720Z,60
2018-06-24T04:50:20.368Z,60
2018-06-24T04:51:29.277Z,60
2018-06-24T04:52:37.926Z,65
2018-06-24T04:53:46.561Z,75
2018-06-24T04:54:55.472Z,90
2018-06-24T04:56:04.906Z,100
2018-06-24T04:57:13.558Z,105
2018-06-24T04:58:22.196Z,110
2018-06-24T04:59:31.105Z,115
2018-06-24T05:00:39.743Z,115
2018-06-24T05:01:48.396Z,115
2018-06-24T05:02:57.288Z,110
2018-06-24T05:04:05.936Z,110
2018-06-24T05:05:14.851Z,105
2018-06-24T05:06:23.843Z,95
2018-06-24T05:07:32.436Z,90
2018-06-24T05:08:41.078Z,85
2018-06-24T05:09:49.723Z,90
2018-06-24T05:10:58.367Z,100
2018-06-24T05:12:07.281Z,105
2018-06-24T05:13:15.926Z,105
2018-06-24T05:14:24.572Z,95
2018-06-24T05:15:33.205Z,90
2018-06-24T05:16:41.856Z,90
2018-06-24T05:17:50.502Z,95
2018-06-24T05:18:59.143Z,95
2018-06-24T05:20:07.782Z,100
2018-06-24T05:21:16.432Z,100
2018-06-24T05:22:25.072Z,105
2018-06-24T05:23:33.719Z,105
2018-06-24T05:24:42.359Z,105
2018-06-24T05:25:51.274Z,105
2018-06-24T05:26:59.918Z,110
2018-06-24T05:28:08.564Z,110
2018-06-24T05:29:17.210Z,110
2018-06-24T05:30:25.858Z,110
2018-06-24T05:31:34.499Z,115
2018-06-24T05:32:43.141Z,115
2018-06-24T05:33:51.790Z,115
2018-06-24T05:35:00.698Z,115
2018-06-24T05:36:09.341Z,115
2018-06-24T05:37:17.986Z,120
2018-06-24T05:38:26.636Z,120
2018-06-24T05:39:35.536Z,120
2018-06-24T05:40:44.454Z,115
2018-06-24T05:41:53.360Z,110
2018-06-24T05:43:02.625Z,110
2018-06-24T05:44:11.240Z,120
2018-06-24T05:45:19.884Z,125
2018-06-24T05:46:28.530Z,120
2018-06-24T05:47:37.178Z,120
2018-06-24T05:48:45.874Z,120
2018-06-24T05:49:54.466Z,120
2018-06-24T05:51:03.385Z,110
2018-06-24T05:52:12.022Z,110
2018-06-24T05:53:20.671Z,105
2018-06-24T05:54:29.749Z,105
2018-06-24T05:55:38.393Z,110
2018-06-24T05:56:47.030Z,120
2018-06-24T05:57:55.678Z,140
2018-06-24T05:59:04.322Z,165
2018-06-24T06:00:12.973Z,185
2018-06-24T06:01:21.608Z,190
2018-06-24T06:02:30.258Z,190
2018-06-24T06:03:38.901Z,175
2018-06-24T06:04:47.812Z,170
2018-06-24T06:05:56.459Z,155
2018-06-24T06:07:05.100Z,145
2018-06-24T06:08:14.009Z,135
2018-06-24T06:09:22.657Z,130
2018-06-24T06:10:31.356Z,120
2018-06-24T06:11:39.957Z,120
2018-06-24T06:12:48.590Z,120
2018-06-24T06:13:57.240Z,115
2018-06-24T06:15:06.137Z,110
2018-06-24T06:16:14.885Z,105
2018-06-24T06:17:23.434Z,105
2018-06-24T06:18:32.084Z,105
2018-06-24T06:19:40.720Z,105
2018-06-24T06:20:49.638Z,105
2018-06-24T06:21:58.292Z,105
2018-06-24T06:23:06.938Z,105
2018-06-24T06:24:15.586Z,105
2018-06-24T06:25:24.221Z,110
2018-06-24T06:26:32.870Z,115
2018-06-24T06:27:41.513Z,120
2018-06-24T06:28:50.165Z,135
2018-06-24T06:29:58.803Z,155
2018-06-24T06:31:07.453Z,165
2018-06-24T06:32:16.376Z,160
2018-06-24T06:33:25.037Z,160
2018-06-24T06:34:33.673Z,160
2018-06-24T06:35:42.320Z,175
2018-06-24T06:36:51.008Z,180
2018-06-24T06:37:59.619Z,185
2018-06-24T06:39:08.542Z,180
2018-06-24T06:40:17.178Z,185
2018-06-24T06:41:25.823Z,180
2018-06-24T06:42:34.465Z,190
2018-06-24T06:43:43.118Z,200
2018-06-24T06:44:51.833Z,205
2018-06-24T06:46:00.758Z,210
2018-06-24T06:47:09.658Z,215
2018-06-24T06:48:18.314Z,210
2018-06-24T06:49:26.957Z,200
2018-06-24T06:50:35.605Z,185
2018-06-24T06:51:44.244Z,180
2018-06-24T06:52:53.159Z,185
2018-06-24T06:54:02.062Z,190
2018-06-24T06:55:10.984Z,185
2018-06-24T06:56:19.622Z,190
2018-06-24T06:57:28.271Z,205
2018-06-24T06:58:36.916Z,210
2018-06-24T06:59:45.565Z,210
2018-06-24T07:00:54.217Z,220
2018-06-24T07:02:02.852Z,220
2018-06-24T07:03:11.510Z,220
2018-06-24T07:04:20.154Z,225
2018-06-24T07:05:28.808Z,215
2018-06-24T07:06:37.448Z,200
2018-06-24T07:07:46.093Z,195
2018-06-24T07:08:54.738Z,190
2018-06-24T07:10:03.389Z,180
2018-06-24T07:11:12.030Z,175
2018-06-24T07:12:20.680Z,175
2018-06-24T07:13:29.329Z,185
2018-06-24T07:14:38.284Z,190
2018-06-24T07:15:46.925Z,195
2018-06-24T07:16:55.576Z,200
2018-06-24T07:18:04.480Z,200
2018-06-24T07:19:13.123Z,210
2018-06-24T07:20:21.775Z,220
2018-06-24T07:21:30.423Z,225
2018-06-24T07:22:39.072Z,225
2018-06-24T07:23:47.714Z,225
2018-06-24T07:24:56.364Z,225
2018-06-24T07:26:05.013Z,230
2018-06-24T07:27:13.652Z,235
2018-06-24T07:28:22.294Z,230
2018-06-24T07:29:30.945Z,210
2018-06-24T07:30:39.589Z,215
2018-06-24T07:31:48.497Z,205
2018-06-24T07:32:57.407Z,185
2018-06-24T07:34:06.057Z,185
2018-06-24T07:35:14.700Z,205
2018-06-24T07:36:23.347Z,205
2018-06-24T07:37:31.997Z,215
2018-06-24T07:38:40.703Z,250
2018-06-24T07:39:49.287Z,240
2018-06-24T07:40:57.933Z,225
2018-06-24T07:42:06.587Z,215
2018-06-24T07:43:15.222Z,215
2018-06-24T07:44:23.871Z,215
2018-06-24T07:45:32.519Z,230
2018-06-24T07:46:41.168Z,230
2018-06-24T07:47:49.812Z,215
2018-06-24T07:48:58.721Z,205
2018-06-24T07:50:07.366Z,205
2018-06-24T07:51:16.018Z,180
2018-06-24T07:52:24.663Z,175
2018-06-24T07:53:33.310Z,195
2018-06-24T07:54:42.223Z,180
2018-06-24T07:55:50.868Z,160
2018-06-24T07:56:59.520Z,150
2018-06-24T07:58:08.167Z,160
2018-06-24T07:59:16.813Z,200
2018-06-24T08:00:25.460Z,225
2018-06-24T08:01:34.109Z,240
2018-06-24T08:02:42.802Z,235
2018-06-24T08:03:51.401Z,240
2018-06-24T08:05:00.049Z,265
2018-06-24T08:06:08.696Z,275
2018-06-24T08:07:17.340Z,285
2018-06-24T08:08:25.986Z,290
2018-06-24T08:09:34.654Z,290
2018-06-24T08:10:43.298Z,285
2018-06-24T08:11:51.945Z,285
2018-06-24T08:13:00.591Z,260
2018-06-24T08:14:09.233Z,260
2018-06-24T08:15:17.885Z,280
2018-06-24T08:16:26.533Z,275
2018-06-24T08:17:35.179Z,260
2018-06-24T08:18:43.822Z,230
2018-06-24T08:19:52.473Z,220
2018-06-24T08:21:01.120Z,225
2018-06-24T08:22:09.768Z,235
2018-06-24T08:23:18.413Z,245
2018-06-24T08:24:27.065Z,240
2018-06-24T08:25:35.714Z,240
2018-06-24T08:26:44.363Z,240
2018-06-24T08:27:53.005Z,240
2018-06-24T08:29:01.657Z,230
2018-06-24T08:30:10.573Z,235
2018-06-24T08:31:19.488Z,225
2018-06-24T08:32:28.142Z,220
2018-06-24T08:33:36.781Z,215
2018-06-24T08:34:45.428Z,220
2018-06-24T08:35:54.348Z,260
2018-06-24T08:37:03.266Z,305
2018-06-24T08:38:11.909Z,325
2018-06-24T08:39:20.828Z,335
2018-06-24T08:40:29.472Z,335
2018-06-24T08:41:38.121Z,335
2018-06-24T08:42:46.764Z,340
2018-06-24T08:43:55.678Z,330
2018-06-24T08:45:04.593Z,310
2018-06-24T08:46:13.242Z,305
2018-06-24T08:47:22.121Z,285
2018-06-24T08:48:30.535Z,260
2018-06-24T08:49:39.181Z,265
2018-06-24T08:50:48.090Z,275
2018-06-24T08:51:56.740Z,290
2018-06-24T08:53:05.385Z,300
2018-06-24T08:54:14.037Z,290
2018-06-24T08:55:22.677Z,300
2018-06-24T08:56:31.334Z,255
2018-06-24T08:57:39.981Z,215
2018-06-24T08:58:48.628Z,190
2018-06-24T08:59:57.271Z,210
2018-06-24T09:01:05.923Z,260
2018-06-24T09:02:14.829Z,295
2018-06-24T09:03:23.479Z,290
2018-06-24T09:04:32.117Z,290
2018-06-24T09:05:41.028Z,290
2018-06-24T09:06:49.681Z,290
2018-06-24T09:07:58.335Z,290
2018-06-24T09:09:06.979Z,265
2018-06-24T09:10:15.617Z,235
2018-06-24T09:11:24.268Z,250
2018-06-24T09:12:32.909Z,275
2018-06-24T09:13:41.568Z,280
2018-06-24T09:14:50.241Z,240
2018-06-24T09:15:59.037Z,215
2018-06-24T09:17:07.503Z,190
2018-06-24T09:18:16.156Z,170
2018-06-24T09:19:25.060Z,160
2018-06-24T09:20:33.711Z,160
2018-06-24T09:21:42.359Z,175
2018-06-24T09:22:51.069Z,170
2018-06-24T09:23:59.926Z,160
2018-06-24T09:25:08.836Z,155
2018-06-24T09:26:17.481Z,160
2018-06-24T09:27:26.125Z,160
2018-06-24T09:28:34.781Z,165
2018-06-24T09:29:43.423Z,175
2018-06-24T09:30:52.558Z,170
2018-06-24T09:32:01.058Z,165
2018-06-24T09:33:09.713Z,175
2018-06-24T09:34:18.616Z,195
2018-06-24T09:35:27.533Z,210
2018-06-24T09:36:36.435Z,240
2018-06-24T09:37:45.097Z,275
2018-06-24T09:38:53.998Z,300
2018-06-24T09:40:02.652Z,325
2018-06-24T09:41:11.286Z,350
2018-06-24T09:42:19.936Z,350
2018-06-24T09:43:28.588Z,350
2018-06-24T09:44:37.238Z,320
2018-06-24T09:45:45.885Z,290
2018-06-24T09:46:54.524Z,295
2018-06-24T09:48:03.176Z,285
2018-06-24T09:49:11.818Z,270
2018-06-24T09:50:20.749Z,240
2018-06-24T09:51:29.388Z,230
2018-06-24T09:52:38.041Z,265
2018-06-24T09:53:46.682Z,315
2018-06-24T09:54:55.339Z,360
2018-06-24T09:56:03.976Z,400
2018-06-24T09:57:12.899Z,435
2018-06-24T09:58:21.805Z,445
2018-06-24T09:59:30.461Z,395
2018-06-24T10:00:39.110Z,310
2018-06-24T10:01:48.012Z,225
2018-06-24T10:02:56.658Z,165
2018-06-24T10:04:05.304Z,150
2018-06-24T10:05:13.956Z,165
2018-06-24T10:06:22.612Z,215
2018-06-24T10:07:31.264Z,270
2018-06-24T10:08:39.900Z,315
2018-06-24T10:09:48.551Z,330
2018-06-24T10:10:57.206Z,345
2018-06-24T10:12:05.847Z,340
2018-06-24T10:13:14.492Z,345
2018-06-24T10:14:23.143Z,355
2018-06-24T10:15:31.789Z,350
2018-06-24T10:16:40.440Z,320
2018-06-24T10:17:49.085Z,295
2018-06-24T10:18:57.734Z,260
2018-06-24T10:20:06.381Z,230
2018-06-24T10:21:15.036Z,190
2018-06-24T10:22:23.681Z,150
2018-06-24T10:23:32.359Z,150
2018-06-24T10:24:40.974Z,175
2018-06-24T10:25:49.908Z,215
2018-06-24T10:26:58.552Z,265
2018-06-24T10:28:07.466Z,305
2018-06-24T10:29:16.114Z,285
2018-06-24T10:30:25.036Z,250
2018-06-24T10:31:33.970Z,215
2018-06-24T10:32:43.166Z,205
2018-06-24T10:33:52.079Z,205
2018-06-24T10:35:00.723Z,220
2018-06-24T10:36:09.379Z,255
2018-06-24T10:37:18.034Z,275
2018-06-24T10:38:26.673Z,265
2018-06-24T10:39:35.319Z,235
2018-06-24T10:40:43.965Z,195
2018-06-24T10:41:52.621Z,165
2018-06-24T10:43:01.265Z,130
2018-06-24T10:44:09.915Z,130
2018-06-24T10:45:18.558Z,160
2018-06-24T10:46:27.209Z,195
2018-06-24T10:47:35.859Z,215
2018-06-24T10:48:44.770Z,225
2018-06-24T10:49:53.671Z,230
2018-06-24T10:51:02.321Z,230
2018-06-24T10:52:10.966Z,240
2018-06-24T10:53:19.615Z,245
2018-06-24T10:54:28.256Z,245
2018-06-24T10:55:36.904Z,265
2018-06-24T10:56:45.551Z,285
2018-06-24T10:57:54.198Z,285
2018-06-24T10:59:02.850Z,285
2018-06-24T11:00:11.495Z,290
2018-06-24T11:01:20.140Z,305
2018-06-24T11:02:28.784Z,315
2018-06-24T11:03:37.704Z,320
2018-06-24T11:04:46.345Z,335
2018-06-24T11:05:54.992Z,335
2018-06-24T11:07:03.633Z,325
2018-06-24T11:08:12.567Z,315
2018-06-24T11:09:21.202Z,315
2018-06-24T11:10:29.851Z,325
2018-06-24T11:11:38.494Z,330
2018-06-24T11:12:47.154Z,330
2018-06-24T11:13:55.797Z,335
2018-06-24T11:15:04.441Z,350
2018-06-24T11:16:13.089Z,365
2018-06-24T11:17:21.735Z,385
2018-06-24T11:18:30.389Z,410
2018-06-24T11:19:39.034Z,420
2018-06-24T11:20:47.685Z,415
2018-06-24T11:21:56.519Z,380
2018-06-24T11:23:04.982Z,345
2018-06-24T11:24:13.625Z,315
2018-06-24T11:25:22.276Z,295
2018-06-24T11:26:30.914Z,285
2018-06-24T11:27:39.570Z,260
2018-06-24T11:28:48.214Z,260
2018-06-24T11:29:56.867Z,240
2018-06-24T11:31:05.794Z,235
2018-06-24T11:32:14.421Z,240
2018-06-24T11:33:23.076Z,200
2018-06-24T11:34:31.729Z,220
2018-06-24T11:35:40.642Z,260
2018-06-24T11:36:49.281Z,300
2018-06-24T11:37:58.203Z,330
2018-06-24T11:39:06.846Z,320
2018-06-24T11:40:15.504Z,305
2018-06-24T11:41:24.144Z,315
2018-06-24T11:42:32.802Z,300
2018-06-24T11:43:41.971Z,275
2018-06-24T11:44:50.892Z,270
2018-06-24T11:45:59.791Z,245
2018-06-24T11:47:08.441Z,215
2018-06-24T11:48:17.090Z,185
2018-06-24T11:49:25.746Z,175
2018-06-24T11:50:34.394Z,185
2018-06-24T11:51:43.035Z,200
2018-06-24T11:52:51.681Z,215
2018-06-24T11:54:00.325Z,230
2018-06-24T11:55:08.985Z,245
2018-06-24T11:56:17.628Z,245
2018-06-24T11:57:26.280Z,230
2018-06-24T11:58:34.918Z,240
2018-06-24T11:59:43.568Z,300
2018-06-24T12:00:52.219Z,290
2018-06-24T12:02:00.920Z,245
2018-06-24T12:03:09.520Z,205
2018-06-24T12:04:18.161Z,195
2018-06-24T12:05:27.087Z,170
2018-06-24T12:06:35.732Z,160
2018-06-24T12:07:44.391Z,170
2018-06-24T12:08:53.299Z,195
2018-06-24T12:10:01.947Z,185
2018-06-24T12:11:11.116Z,170
2018-06-24T12:12:19.759Z,170
2018-06-24T12:13:28.415Z,190
2018-06-24T12:14:37.056Z,200
2018-06-24T12:15:45.709Z,200
2018-06-24T12:16:54.392Z,210
2018-06-24T12:18:03.285Z,245
2018-06-24T12:19:11.920Z,245
2018-06-24T12:20:20.841Z,250
2018-06-24T12:21:29.481Z,255
2018-06-24T12:22:38.143Z,270
2018-06-24T12:23:46.793Z,240
2018-06-24T12:24:55.439Z,285
2018-06-24T12:26:04.082Z,340
2018-06-24T12:27:12.731Z,310
2018-06-24T12:28:21.648Z,275
2018-06-24T12:29:30.299Z,255
2018-06-24T12:30:39.247Z,270
2018-06-24T12:31:48.124Z,235
2018-06-24T12:32:56.774Z,220
2018-06-24T12:34:05.417Z,225
2018-06-24T12:35:14.097Z,225
2018-06-24T12:36:22.715Z,210
2018-06-24T12:37:31.380Z,215
2018-06-24T12:38:40.012Z,215
2018-06-24T12:39:48.930Z,230
2018-06-24T12:40:57.568Z,230
2018-06-24T12:42:06.222Z,200
2018-06-24T12:43:14.872Z,200
2018-06-24T12:44:23.793Z,190
2018-06-24T12:45:32.440Z,210
2018-06-24T12:46:41.085Z,215
2018-06-24T12:47:49.732Z,200
2018-06-24T12:48:58.377Z,205
2018-06-24T12:50:07.035Z,190
2018-06-24T12:51:15.676Z,195
2018-06-24T12:52:24.330Z,210
2018-06-24T12:53:32.970Z,210
2018-06-24T12:54:41.627Z,220
2018-06-24T12:55:50.269Z,215
2018-06-24T12:56:58.917Z,220
2018-06-24T12:58:07.614Z,220
2018-06-24T12:59:17.319Z,220
2018-06-24T13:00:26.312Z,230
2018-06-24T13:01:35.612Z,245
2018-06-24T13:02:44.256Z,260
2018-06-24T13:03:52.910Z,255
2018-06-24T13:05:01.555Z,255
2018-06-24T13:06:10.211Z,265
2018-06-24T13:07:18.863Z,285
2018-06-24T13:08:27.507Z,270
2018-06-24T13:09:36.419Z,255
2018-06-24T13:10:45.592Z,205
2018-06-24T13:11:54.242Z,200
2018-06-24T13:13:03.150Z,255
2018-06-24T13:14:12.157Z,300
2018-06-24T13:15:21.046Z,280
2018-06-24T13:16:29.697Z,250
2018-06-24T13:17:38.340Z,230
2018-06-24T13:18:46.989Z,200
2018-06-24T13:19:55.900Z,180
2018-06-24T13:21:04.552Z,165
2018-06-24T13:22:13.200Z,145
2018-06-24T13:23:21.845Z,135
2018-06-24T13:24:30.493Z,125
2018-06-24T13:25:39.140Z,115
2018-06-24T13:26:47.842Z,125
2018-06-24T13:27:56.708Z,135
2018-06-24T13:29:05.358Z,155
2018-06-24T13:30:14.268Z,170
2018-06-24T13:31:22.919Z,160
2018-06-24T13:32:31.566Z,180
2018-06-24T13:33:40.212Z,180
2018-06-24T13:34:48.857Z,155
2018-06-24T13:35:57.771Z,145
2018-06-24T13:37:06.680Z,165
2018-06-24T13:38:15.332Z,155
2018-06-24T13:39:24.244Z,160
2018-06-24T13:40:32.895Z,175
2018-06-24T13:41:41.804Z,185
2018-06-24T13:42:50.456Z,175
2018-06-24T13:43:59.109Z,215
2018-06-24T13:45:07.753Z,250
2018-06-24T13:46:16.668Z,255
2018-06-24T13:47:25.316Z,230
2018-06-24T13:48:33.967Z,235
2018-06-24T13:49:42.872Z,250
2018-06-24T13:50:51.519Z,235
2018-06-24T13:52:00.165Z,220
2018-06-24T13:53:09.082Z,195
2018-06-24T13:54:17.727Z,180
2018-06-24T13:55:26.376Z,200
2018-06-24T13:56:35.286Z,210
2018-06-24T13:57:43.938Z,215
2018-06-24T13:58:52.585Z,220
2018-06-24T14:00:01.234Z,210
2018-06-24T14:01:10.153Z,180
2018-06-24T14:02:18.799Z,165
2018-06-24T14:03:27.453Z,155
2018-06-24T14:04:36.104Z,135
2018-06-24T14:05:44.748Z,120
2018-06-24T14:06:53.392Z,105
2018-06-24T14:08:02.055Z,90
2018-06-24T14:09:10.694Z,110
2018-06-24T14:10:19.344Z,135
2018-06-24T14:11:27.987Z,155
2018-06-24T14:12:36.641Z,175
2018-06-24T14:13:45.549Z,200
2018-06-24T14:14:54.465Z,200
2018-06-24T14:16:03.109Z,195
2018-06-24T14:17:12.019Z,180
2018-06-24T14:18:20.666Z,175
2018-06-24T14:19:29.314Z,180
2018-06-24T14:20:37.966Z,190
2018-06-24T14:21:46.608Z,175
2018-06-24T14:22:55.519Z,160
2018-06-24T14:24:04.166Z,150
2018-06-24T14:25:12.818Z,140
2018-06-24T14:26:21.463Z,140
2018-06-24T14:27:30.112Z,130
2018-06-24T14:28:38.761Z,120
2018-06-24T14:29:47.411Z,120
2018-06-24T14:30:56.053Z,130
2018-06-24T14:32:04.696Z,135
2018-06-24T14:33:13.342Z,145
2018-06-24T14:34:21.993Z,140
2018-06-24T14:35:30.637Z,140
2018-06-24T14:36:39.286Z,145
2018-06-24T14:37:48.191Z,135
2018-06-24T14:38:56.835Z,135
2018-06-24T14:40:05.746Z,130
2018-06-24T14:41:14.391Z,130
2018-06-24T14:42:23.039Z,140
2018-06-24T14:43:31.692Z,135
2018-06-24T14:44:40.336Z,120
2018-06-24T14:45:49.252Z,125
2018-06-24T14:46:58.172Z,110
2018-06-24T14:48:06.815Z,105
2018-06-24T14:49:15.468Z,115
2018-06-24T14:50:24.112Z,100
2018-06-24T14:51:32.759Z,90
2018-06-24T14:52:41.402Z,90
2018-06-24T14:53:50.051Z,95
2018-06-24T14:54:58.699Z,85
2018-06-24T14:56:07.614Z,90
2018-06-24T14:57:16.262Z,90
2018-06-24T14:58:24.904Z,95
2018-06-24T14:59:33.553Z,90
2018-06-24T15:00:42.200Z,85
2018-06-24T15:01:51.549Z,95
2018-06-24T15:03:00.187Z,100
2018-06-24T15:04:08.840Z,95
2018-06-24T15:05:17.549Z,95
2018-06-24T15:06:26.143Z,95
2018-06-24T15:07:34.784Z,100
2018-06-24T15:08:43.430Z,105
2018-06-24T15:09:52.072Z,110
2018-06-24T15:11:00.726Z,115
2018-06-24T15:12:09.436Z,105
2018-06-24T15:13:18.009Z,100
2018-06-24T15:14:26.653Z,100
2018-06-24T15:15:35.299Z,100
2018-06-24T15:16:43.953Z,110
2018-06-24T15:17:52.597Z,125
2018-06-24T15:19:01.249Z,135
2018-06-24T15:20:09.888Z,135
2018-06-24T15:21:18.548Z,130
2018-06-24T15:22:27.191Z,120
2018-06-24T15:23:35.843Z,115
2018-06-24T15:24:44.480Z,105
2018-06-24T15:25:53.137Z,100
2018-06-24T15:27:01.784Z,110
2018-06-24T15:28:10.433Z,110
2018-06-24T15:29:19.071Z,110
2018-06-24T15:30:27.722Z,105
2018-06-24T15:31:36.384Z,105
2018-06-24T15:32:45.031Z,120
2018-06-24T15:33:53.680Z,120
2018-06-24T15:35:02.319Z,115
2018-06-24T15:36:10.975Z,105
2018-06-24T15:37:19.616Z,90
2018-06-24T15:38:28.542Z,90
2018-06-24T15:39:37.440Z,90
2018-06-24T15:40:46.090Z,90
2018-06-24T15:41:54.997Z,95
2018-06-24T15:43:03.656Z,95
2018-06-24T15:44:12.557Z,95
2018-06-24T15:45:21.206Z,90
2018-06-24T15:46:29.851Z,95
2018-06-24T15:47:38.778Z,100
2018-06-24T15:48:47.420Z,105
2018-06-24T15:49:56.064Z,95
2018-06-24T15:51:04.704Z,90
2018-06-24T15:52:13.353Z,90
2018-06-24T15:53:22.005Z,90
2018-06-24T15:54:30.650Z,95
2018-06-24T15:55:39.291Z,90
2018-06-24T15:56:48.011Z,80
2018-06-24T15:57:56.584Z,80
2018-06-24T15:59:05.235Z,80
2018-06-24T16:00:13.876Z,75
2018-06-24T16:01:22.533Z,75
2018-06-24T16:02:31.172Z,80
2018-06-24T16:03:39.820Z,75
2018-06-24T16:04:48.469Z,65